createdAt,value
2018-03-07T00:02:04.835Z,98591.27
2018-03-07T00:04:32.474Z,98594.03
2018-03-07T00:07:00.067Z,98593.72
2018-03-07T00:09:27.778Z,98595.53
2018-03-07T00:11:55.385Z,98595.87
2018-03-07T00:14:23.010Z,98594.53
2018-03-07T00:16:50.639Z,98593.47
2018-03-07T00:19:18.278Z,98591.27
2018-03-07T00:21:45.878Z,98593.72
2018-03-07T00:24:13.513Z,98588.91
2018-03-07T00:26:41.178Z,98599.06
2018-03-07T00:29:08.793Z,98593.14
2018-03-07T00:31:36.580Z,98589.94
2018-03-07T00:34:04.239Z,98595.30
2018-03-07T00:36:31.962Z,98596.04
2018-03-07T00:38:59.589Z,98595.76
2018-03-07T00:41:27.192Z,98596.51
2018-03-07T00:43:54.812Z,98594.62
2018-03-07T00:46:22.480Z,98596.95
2018-03-07T00:48:50.117Z,98601.20
2018-03-07T00:51:17.722Z,98598.87
2018-03-07T00:53:45.346Z,98595.45
2018-03-07T00:56:12.958Z,98595.58
2018-03-07T00:58:40.582Z,98597.23
2018-03-07T01:01:08.166Z,98603.63
2018-03-07T01:03:35.898Z,98600.27
2018-03-07T01:06:03.503Z,98604.53
2018-03-07T01:08:31.123Z,98596.75
2018-03-07T01:10:58.722Z,98597.87
2018-03-07T01:13:26.342Z,98590.13
2018-03-07T01:15:53.935Z,98594.55
2018-03-07T01:18:21.682Z,98595.58
2018-03-07T01:20:49.295Z,98593.28
2018-03-07T01:23:16.925Z,98588.84
2018-03-07T01:25:44.523Z,98589.23
2018-03-07T01:28:12.250Z,98582.80
2018-03-07T01:30:39.847Z,98587.22
2018-03-07T01:33:07.455Z,98589.02
2018-03-07T01:35:35.107Z,98581.40
2018-03-07T01:38:02.734Z,98587.70
2018-03-07T01:40:30.339Z,98593.27
2018-03-07T01:42:57.978Z,98585.31
2018-03-07T01:45:25.606Z,98591.63
2018-03-07T01:47:53.333Z,98585.95
2018-03-07T01:50:20.930Z,98590.86
2018-03-07T01:52:48.599Z,98586.47
2018-03-07T01:55:16.204Z,98589.02
2018-03-07T01:57:44.003Z,98587.34
2018-03-07T02:00:11.606Z,98587.69
2018-03-07T02:02:39.239Z,98586.41
2018-03-07T02:05:06.838Z,98589.36
2018-03-07T02:07:34.478Z,98589.61
2018-03-07T02:10:02.102Z,98593.63
2018-03-07T02:12:29.726Z,98591.04
2018-03-07T02:14:57.335Z,98589.20
2018-03-07T02:17:24.950Z,98591.26
2018-03-07T02:19:52.549Z,98586.00
2018-03-07T02:22:20.370Z,98585.60
2018-03-07T02:24:47.983Z,98591.75
2018-03-07T02:27:15.622Z,98588.27
2018-03-07T02:29:43.245Z,98584.45
2018-03-07T02:32:10.888Z,98588.62
2018-03-07T02:34:38.575Z,98591.11
2018-03-07T02:37:06.200Z,98587.03
2018-03-07T02:39:33.835Z,98590.14
2018-03-07T02:42:01.633Z,98580.78
2018-03-07T02:44:29.238Z,98589.44
2018-03-07T02:46:56.870Z,98580.09
2018-03-07T02:49:24.594Z,98580.59
2018-03-07T02:51:52.221Z,98590.09
2018-03-07T02:54:19.816Z,98587.08
2018-03-07T02:56:47.438Z,98584.15
2018-03-07T02:59:15.035Z,98583.91
2018-03-07T03:01:42.662Z,98579.34
2018-03-07T03:04:10.265Z,98586.55
2018-03-07T03:06:37.935Z,98589.02
2018-03-07T03:09:05.527Z,98591.89
2018-03-07T03:11:33.186Z,98592.55
2018-03-07T03:14:00.788Z,98583.28
2018-03-07T03:16:28.422Z,98586.24
2018-03-07T03:18:56.031Z,98590.55
2018-03-07T03:21:23.629Z,98588.11
2018-03-07T03:23:51.285Z,98593.04
2018-03-07T03:26:18.864Z,98596.86
2018-03-07T03:28:46.488Z,98590.98
2018-03-07T03:31:14.098Z,98592.48
2018-03-07T03:33:41.851Z,98593.38
2018-03-07T03:36:09.498Z,98588.57
2018-03-07T03:38:37.159Z,98597.56
2018-03-07T03:41:04.754Z,98603.53
2018-03-07T03:43:32.397Z,98602.91
2018-03-07T03:46:00.021Z,98605.17
2018-03-07T03:48:27.639Z,98602.41
2018-03-07T03:50:55.270Z,98603.33
2018-03-07T03:53:22.858Z,98606.34
2018-03-07T03:55:50.495Z,98604.47
2018-03-07T03:58:18.078Z,98605.95
2018-03-07T04:00:45.778Z,98603.14
2018-03-07T04:03:13.374Z,98596.63
2018-03-07T04:05:41.020Z,98603.35
2018-03-07T04:08:08.619Z,98600.21
2018-03-07T04:10:36.260Z,98601.92
2018-03-07T04:13:03.844Z,98607.47
2018-03-07T04:15:31.474Z,98605.52
2018-03-07T04:17:59.070Z,98600.64
2018-03-07T04:20:26.706Z,98598.97
2018-03-07T04:22:54.297Z,98608.23
2018-03-07T04:25:21.893Z,98604.86
2018-03-07T04:27:49.518Z,98608.27
2018-03-07T04:30:17.118Z,98612.06
2018-03-07T04:32:45.550Z,98608.33
2018-03-07T04:35:13.186Z,98609.02
2018-03-07T04:37:40.814Z,98621.80
2018-03-07T04:40:08.400Z,98616.34
2018-03-07T04:42:36.049Z,98617.05
2018-03-07T04:45:03.621Z,98609.08
2018-03-07T04:47:31.242Z,98609.08
2018-03-07T04:49:58.831Z,98613.75
2018-03-07T04:52:26.458Z,98617.27
2018-03-07T04:54:54.061Z,98617.75
2018-03-07T04:57:21.758Z,98617.31
2018-03-07T04:59:49.346Z,98614.48
2018-03-07T05:02:16.970Z,98614.48
2018-03-07T05:04:44.571Z,98614.02
2018-03-07T05:07:12.194Z,98604.95
2018-03-07T05:09:39.795Z,98604.19
2018-03-07T05:12:07.414Z,98607.28
2018-03-07T05:14:35.014Z,98621.33
2018-03-07T05:17:02.594Z,98628.06
2018-03-07T05:19:30.225Z,98629.33
2018-03-07T05:21:57.817Z,98625.59
2018-03-07T05:24:25.472Z,98626.72
2018-03-07T05:26:53.062Z,98625.51
2018-03-07T05:29:20.711Z,98628.98
2018-03-07T05:31:48.360Z,98635.73
2018-03-07T05:34:15.989Z,98624.45
2018-03-07T05:36:43.626Z,98627.24
2018-03-07T05:39:11.250Z,98618.76
2018-03-07T05:41:38.874Z,98623.73
2018-03-07T05:44:06.507Z,98620.01
2018-03-07T05:46:34.109Z,98623.39
2018-03-07T05:49:01.821Z,98624.34
2018-03-07T05:51:29.409Z,98627.45
2018-03-07T05:53:57.085Z,98632.20
2018-03-07T05:56:25.272Z,98629.09
2018-03-07T05:58:52.920Z,98628.72
2018-03-07T06:01:20.529Z,98632.00
2018-03-07T06:03:48.166Z,98629.64
2018-03-07T06:06:15.762Z,98629.09
2018-03-07T06:08:43.420Z,98627.69
2018-03-07T06:11:11.038Z,98628.80
2018-03-07T06:13:38.638Z,98623.92
2018-03-07T06:16:06.254Z,98623.63
2018-03-07T06:18:33.871Z,98630.25
2018-03-07T06:21:01.464Z,98637.23
2018-03-07T06:23:29.091Z,98635.13
2018-03-07T06:25:56.687Z,98637.38
2018-03-07T06:28:24.339Z,98639.75
2018-03-07T06:30:51.922Z,98638.13
2018-03-07T06:33:19.545Z,98633.28
2018-03-07T06:35:47.147Z,98638.72
2018-03-07T06:38:14.737Z,98640.79
2018-03-07T06:40:42.358Z,98648.62
2018-03-07T06:43:10.050Z,98647.56
2018-03-07T06:45:37.641Z,98653.44
2018-03-07T06:48:05.291Z,98659.84
2018-03-07T06:50:32.843Z,98653.99
2018-03-07T06:53:00.435Z,98649.08
2018-03-07T06:55:28.070Z,98643.69
2018-03-07T06:57:55.682Z,98642.78
2018-03-07T07:00:23.278Z,98664.16
2018-03-07T07:02:50.910Z,98668.87
2018-03-07T07:05:18.523Z,98675.83
2018-03-07T07:07:46.169Z,98683.89
2018-03-07T07:10:13.834Z,98686.55
2018-03-07T07:12:41.472Z,98686.09
2018-03-07T07:15:09.089Z,98687.63
2018-03-07T07:17:36.759Z,98686.91
2018-03-07T07:20:04.394Z,98686.79
2018-03-07T07:22:32.133Z,98686.12
2018-03-07T07:24:59.775Z,98683.11
2018-03-07T07:27:27.420Z,98693.98
2018-03-07T07:29:55.012Z,98694.53
2018-03-07T07:32:22.626Z,98689.55
2018-03-07T07:34:50.482Z,98702.17
2018-03-07T07:37:18.086Z,98701.12
2018-03-07T07:39:45.711Z,98707.41
2018-03-07T07:42:13.298Z,98705.87
2018-03-07T07:44:40.921Z,98701.30
2018-03-07T07:47:08.508Z,98703.38
2018-03-07T07:49:36.138Z,98716.34
2018-03-07T07:52:03.734Z,98725.07
2018-03-07T07:54:31.412Z,98728.83
2018-03-07T07:56:58.990Z,98728.63
2018-03-07T07:59:26.634Z,98736.78
2018-03-07T08:01:54.435Z,98734.15
2018-03-07T08:04:22.080Z,98730.28
2018-03-07T08:06:49.657Z,98734.67
2018-03-07T08:09:17.287Z,98734.44
2018-03-07T08:11:44.870Z,98733.58
2018-03-07T08:14:12.654Z,98728.51
2018-03-07T08:16:40.243Z,98723.84
2018-03-07T08:19:07.910Z,98733.89
2018-03-07T08:21:35.507Z,98732.20
2018-03-07T08:24:03.128Z,98735.07
2018-03-07T08:26:30.816Z,98736.13
2018-03-07T08:28:58.434Z,98746.00
2018-03-07T08:31:26.055Z,98740.67
2018-03-07T08:33:53.703Z,98746.17
2018-03-07T08:36:21.335Z,98743.52
2018-03-07T08:38:49.071Z,98745.41
2018-03-07T08:41:16.654Z,98751.61
2018-03-07T08:43:44.282Z,98749.77
2018-03-07T08:46:11.879Z,98753.61
2018-03-07T08:48:39.514Z,98750.92
2018-03-07T08:51:07.108Z,98755.31
2018-03-07T08:53:34.726Z,98759.24
2018-03-07T08:56:02.323Z,98759.02
2018-03-07T08:58:29.990Z,98758.05
2018-03-07T09:00:57.605Z,98754.00
2018-03-07T09:03:26.758Z,98754.91
2018-03-07T09:05:54.363Z,98763.12
2018-03-07T09:08:22.008Z,98759.88
2018-03-07T09:10:49.701Z,98758.50
2018-03-07T09:13:17.343Z,98759.22
2018-03-07T09:15:44.942Z,98760.14
2018-03-07T09:18:12.557Z,98763.58
2018-03-07T09:20:40.197Z,98768.56
2018-03-07T09:23:07.990Z,98778.00
2018-03-07T09:25:35.587Z,98772.02
2018-03-07T09:28:03.291Z,98780.05
2018-03-07T09:30:30.930Z,98780.20
2018-03-07T09:32:58.612Z,98782.94
2018-03-07T09:35:26.227Z,98785.09
2018-03-07T09:37:53.837Z,98782.39
2018-03-07T09:40:21.452Z,98791.42
2018-03-07T09:42:49.157Z,98789.04
2018-03-07T09:45:16.739Z,98794.41
2018-03-07T09:47:44.532Z,98792.89
2018-03-07T09:50:12.140Z,98796.63
2018-03-07T09:52:39.758Z,98793.45
2018-03-07T09:55:07.535Z,98796.52
2018-03-07T09:57:35.198Z,98804.30
2018-03-07T10:00:02.787Z,98794.22
2018-03-07T10:02:30.442Z,98800.77
2018-03-07T10:04:58.175Z,98809.50
2018-03-07T10:07:25.814Z,98808.34
2018-03-07T10:09:53.523Z,98804.09
2018-03-07T10:12:21.119Z,98816.11
2018-03-07T10:14:48.730Z,98812.73
2018-03-07T10:17:16.338Z,98813.14
2018-03-07T10:19:43.998Z,98818.34
2018-03-07T10:22:11.629Z,98813.52
2018-03-07T10:24:39.263Z,98819.66
2018-03-07T10:27:06.847Z,98818.63
2018-03-07T10:29:34.478Z,98821.17
2018-03-07T10:32:02.073Z,98820.09
2018-03-07T10:34:29.744Z,98823.16
2018-03-07T10:36:57.378Z,98821.66
2018-03-07T10:39:24.957Z,98824.66
2018-03-07T10:41:52.743Z,98826.92
2018-03-07T10:44:20.368Z,98822.93
2018-03-07T10:46:47.958Z,98826.75
2018-03-07T10:49:15.587Z,98828.25
2018-03-07T10:51:43.202Z,98828.88
2018-03-07T10:54:10.832Z,98835.80
2018-03-07T10:56:38.462Z,98827.37
2018-03-07T10:59:06.087Z,98831.16
2018-03-07T11:01:33.680Z,98829.95
2018-03-07T11:04:01.303Z,98829.67
2018-03-07T11:06:28.919Z,98828.73
2018-03-07T11:08:56.574Z,98831.34
2018-03-07T11:11:24.175Z,98829.87
2018-03-07T11:13:51.841Z,98829.94
2018-03-07T11:16:19.395Z,98830.23
2018-03-07T11:18:47.048Z,98828.59
2018-03-07T11:21:14.655Z,98830.22
2018-03-07T11:23:42.299Z,98831.40
2018-03-07T11:26:09.968Z,98828.55
2018-03-07T11:28:37.676Z,98829.06
2018-03-07T11:31:05.266Z,98834.06
2018-03-07T11:33:32.911Z,98837.81
2018-03-07T11:36:00.531Z,98827.84
2018-03-07T11:38:28.266Z,98828.63
2018-03-07T11:40:55.862Z,98827.73
2018-03-07T11:43:23.508Z,98824.57
2018-03-07T11:45:51.111Z,98831.38
2018-03-07T11:48:18.747Z,98828.92
2018-03-07T11:50:46.339Z,98826.25
2018-03-07T11:53:13.965Z,98833.77
2018-03-07T11:55:41.572Z,98833.38
2018-03-07T11:58:09.206Z,98832.55
2018-03-07T12:00:36.797Z,98835.67
2018-03-07T12:03:04.426Z,98830.67
2018-03-07T12:05:32.026Z,98827.59
2018-03-07T12:07:59.736Z,98832.14
2018-03-07T12:10:27.346Z,98830.33
2018-03-07T12:12:54.958Z,98827.84
2018-03-07T12:15:22.649Z,98822.50
2018-03-07T12:17:50.263Z,98820.44
2018-03-07T12:20:17.880Z,98824.89
2018-03-07T12:22:45.504Z,98821.42
2018-03-07T12:25:13.098Z,98817.80
2018-03-07T12:27:40.775Z,98816.27
2018-03-07T12:30:08.370Z,98816.02
2018-03-07T12:32:36.046Z,98814.44
2018-03-07T12:35:03.698Z,98811.19
2018-03-07T12:37:31.306Z,98808.91
2018-03-07T12:39:58.914Z,98806.14
2018-03-07T12:42:26.541Z,98805.31
2018-03-07T12:44:54.138Z,98808.77
2018-03-07T12:47:21.755Z,98809.50
2018-03-07T12:49:49.352Z,98809.39
2018-03-07T12:52:16.966Z,98806.30
2018-03-07T12:54:44.586Z,98808.12
2018-03-07T12:57:12.226Z,98812.08
2018-03-07T12:59:39.827Z,98812.36
2018-03-07T13:02:07.438Z,98815.98
2018-03-07T13:04:35.038Z,98815.14
2018-03-07T13:07:02.844Z,98816.95
2018-03-07T13:09:30.427Z,98815.39
2018-03-07T13:11:58.026Z,98815.88
2018-03-07T13:14:25.734Z,98810.28
2018-03-07T13:16:53.328Z,98813.05
2018-03-07T13:19:20.912Z,98816.70
2018-03-07T13:21:48.530Z,98819.37
2018-03-07T13:24:16.110Z,98818.84
2018-03-07T13:26:43.734Z,98823.18
2018-03-07T13:29:11.330Z,98814.29
2018-03-07T13:31:38.947Z,98825.17
2018-03-07T13:34:06.617Z,98816.16
2018-03-07T13:36:34.239Z,98818.42
2018-03-07T13:39:01.844Z,98818.82
2018-03-07T13:41:29.457Z,98827.70
2018-03-07T13:43:57.050Z,98822.42
2018-03-07T13:46:24.678Z,98822.35
2018-03-07T13:48:52.358Z,98822.25
2018-03-07T13:51:19.930Z,98830.61
2018-03-07T13:53:47.566Z,98825.47
2018-03-07T13:56:15.190Z,98821.06
2018-03-07T13:58:42.810Z,98825.92
2018-03-07T14:01:10.410Z,98827.78
2018-03-07T14:03:38.018Z,98826.81
2018-03-07T14:06:05.682Z,98829.95
2018-03-07T14:08:33.362Z,98825.63
2018-03-07T14:11:00.946Z,98834.41
2018-03-07T14:13:28.570Z,98828.59
2018-03-07T14:15:56.190Z,98824.73
2018-03-07T14:18:23.810Z,98830.23
2018-03-07T14:20:51.391Z,98829.72
2018-03-07T14:23:19.010Z,98831.48
2018-03-07T14:25:46.601Z,98835.63
2018-03-07T14:28:14.319Z,98828.28
2018-03-07T14:30:41.927Z,98828.09
2018-03-07T14:33:09.526Z,98832.41
2018-03-07T14:35:37.113Z,98831.29
2018-03-07T14:38:04.755Z,98836.83
2018-03-07T14:40:32.338Z,98831.16
2018-03-07T14:42:59.966Z,98834.23
2018-03-07T14:45:27.592Z,98831.36
2018-03-07T14:47:55.222Z,98833.98
2018-03-07T14:50:22.801Z,98836.68
2018-03-07T14:52:50.435Z,98838.52
2018-03-07T14:55:18.449Z,98837.55
2018-03-07T14:57:46.105Z,98835.55
2018-03-07T15:00:13.733Z,98840.79
2018-03-07T15:02:41.707Z,98837.44
2018-03-07T15:05:09.327Z,98836.28
2018-03-07T15:07:36.975Z,98836.73
2018-03-07T15:10:04.605Z,98838.88
2018-03-07T15:12:32.244Z,98834.52
2018-03-07T15:14:59.871Z,98836.99
2018-03-07T15:17:28.098Z,98838.88
2018-03-07T15:19:56.438Z,98838.43
2018-03-07T15:22:24.148Z,98841.30
2018-03-07T15:24:52.582Z,98838.48
2018-03-07T15:27:20.225Z,98841.36
2018-03-07T15:29:47.826Z,98842.54
2018-03-07T15:32:15.442Z,98847.75
2018-03-07T15:34:43.211Z,98843.37
2018-03-07T15:37:10.864Z,98844.09
2018-03-07T15:39:38.489Z,98852.92
2018-03-07T15:42:06.166Z,98852.92
2018-03-07T15:44:33.797Z,98854.36
2018-03-07T15:47:01.473Z,98861.28
2018-03-07T15:49:29.087Z,98866.07
2018-03-07T15:51:56.707Z,98867.46
2018-03-07T15:54:24.321Z,98865.97
2018-03-07T15:56:51.958Z,98874.84
2018-03-07T15:59:19.573Z,98872.02
2018-03-07T16:01:47.200Z,98875.75
2018-03-07T16:04:14.839Z,98877.31
2018-03-07T16:06:42.487Z,98881.91
2018-03-07T16:09:10.200Z,98876.20
2018-03-07T16:11:37.870Z,98884.17
2018-03-07T16:14:06.100Z,98883.38
2018-03-07T16:16:33.732Z,98890.25
2018-03-07T16:19:01.339Z,98889.91
2018-03-07T16:21:29.771Z,98898.16
2018-03-07T16:23:57.378Z,98891.02
2018-03-07T16:26:25.575Z,98898.55
2018-03-07T16:28:53.204Z,98897.02
2018-03-07T16:31:20.846Z,98901.22
2018-03-07T16:33:48.535Z,98902.59
2018-03-07T16:36:16.190Z,98911.56
2018-03-07T16:38:43.787Z,98908.97
2018-03-07T16:41:11.376Z,98914.20
2018-03-07T16:43:38.989Z,98917.69
2018-03-07T16:46:06.630Z,98917.28
2018-03-07T16:48:34.296Z,98918.14
2018-03-07T16:51:01.916Z,98916.31
2018-03-07T16:53:29.568Z,98916.02
2018-03-07T16:55:59.206Z,98918.06
2018-03-07T16:58:26.831Z,98921.44
2018-03-07T17:00:54.468Z,98924.45
2018-03-07T17:03:22.098Z,98927.70
2018-03-07T17:05:49.697Z,98927.26
2018-03-07T17:08:17.346Z,98933.41
2018-03-07T17:10:44.972Z,98941.80
2018-03-07T17:13:12.670Z,98937.41
2018-03-07T17:15:40.301Z,98939.75
2018-03-07T17:18:07.899Z,98944.61
2018-03-07T17:20:35.521Z,98954.80
2018-03-07T17:23:03.500Z,98956.66
2018-03-07T17:25:31.138Z,98962.18
2018-03-07T17:27:58.767Z,98961.17
2018-03-07T17:30:27.337Z,98965.50
2018-03-07T17:32:54.947Z,98969.91
2018-03-07T17:35:22.565Z,98972.39
2018-03-07T17:37:50.190Z,98973.31
2018-03-07T17:40:17.890Z,98984.39
2018-03-07T17:42:45.520Z,98983.65
2018-03-07T17:45:13.159Z,98990.02
2018-03-07T17:47:40.944Z,98999.62
2018-03-07T17:50:08.639Z,98999.71
2018-03-07T17:52:37.116Z,99003.74
2018-03-07T17:55:04.750Z,99011.45
2018-03-07T17:57:32.342Z,99011.57
2018-03-07T17:59:59.963Z,99021.89
2018-03-07T18:02:27.551Z,99025.10
2018-03-07T18:04:55.179Z,99024.34
2018-03-07T18:07:22.772Z,99035.55
2018-03-07T18:09:50.407Z,99042.53
2018-03-07T18:12:18.033Z,99040.94
2018-03-07T18:14:45.622Z,99035.88
2018-03-07T18:17:13.234Z,99044.59
2018-03-07T18:19:40.844Z,99043.63
2018-03-07T18:22:08.466Z,99041.92
2018-03-07T18:24:36.103Z,99050.98
2018-03-07T18:27:03.690Z,99053.65
2018-03-07T18:29:31.285Z,99047.59
2018-03-07T18:31:58.898Z,99049.82
2018-03-07T18:34:26.525Z,99053.22
2018-03-07T18:36:54.181Z,99052.79
2018-03-07T18:39:21.794Z,99069.75
2018-03-07T18:41:49.410Z,99059.42
2018-03-07T18:44:17.036Z,99060.52
2018-03-07T18:46:44.690Z,99065.34
2018-03-07T18:49:12.313Z,99063.91
2018-03-07T18:51:39.934Z,99070.01
2018-03-07T18:54:07.532Z,99072.17
2018-03-07T18:56:35.163Z,99062.48
2018-03-07T18:59:02.818Z,99070.64
2018-03-07T19:01:30.523Z,99072.84
2018-03-07T19:03:58.143Z,99069.40
2018-03-07T19:06:25.767Z,99071.39
2018-03-07T19:08:53.364Z,99077.14
2018-03-07T19:11:21.002Z,99072.38
2018-03-07T19:13:49.329Z,99072.69
2018-03-07T19:16:16.985Z,99067.52
2018-03-07T19:18:44.590Z,99070.48
2018-03-07T19:21:12.298Z,99064.50
2018-03-07T19:23:39.923Z,99067.52
2018-03-07T19:26:07.551Z,99073.59
2018-03-07T19:28:35.154Z,99073.31
2018-03-07T19:31:02.803Z,99079.63
2018-03-07T19:33:30.532Z,99082.95
2018-03-07T19:35:58.191Z,99078.67
2018-03-07T19:38:25.820Z,99076.70
2018-03-07T19:40:53.453Z,99088.58
2018-03-07T19:43:21.051Z,99088.73
2018-03-07T19:45:48.675Z,99089.84
2018-03-07T19:48:16.334Z,99088.41
2018-03-07T19:50:43.994Z,99097.88
2018-03-07T19:53:11.612Z,99092.81
2018-03-07T19:55:39.211Z,99098.56
2018-03-07T19:58:06.871Z,99097.91
2018-03-07T20:00:34.508Z,99104.41
2018-03-07T20:03:02.162Z,99103.77
2018-03-07T20:05:29.768Z,99100.34
2018-03-07T20:07:57.380Z,99108.03
2018-03-07T20:10:25.011Z,99107.21
2018-03-07T20:12:52.887Z,99105.72
2018-03-07T20:15:20.510Z,99111.31
2018-03-07T20:17:48.143Z,99108.52
2018-03-07T20:20:15.819Z,99119.84
2018-03-07T20:22:43.433Z,99116.88
2018-03-07T20:25:11.099Z,99124.45
2018-03-07T20:27:38.740Z,99121.95
2018-03-07T20:30:06.354Z,99127.15
2018-03-07T20:32:33.942Z,99129.64
2018-03-07T20:37:35.583Z,99135.66
2018-03-07T20:40:03.215Z,99144.29
2018-03-07T20:42:30.831Z,99148.13
2018-03-07T20:44:58.461Z,99155.12
2018-03-07T20:47:26.110Z,99160.81
2018-03-07T20:49:53.774Z,99163.75
2018-03-07T20:52:21.396Z,99173.22
2018-03-07T20:54:49.067Z,99168.13
2018-03-07T20:57:16.718Z,99165.61
2018-03-07T20:59:44.307Z,99189.05
2018-03-07T21:02:11.955Z,99180.02
2018-03-07T21:04:39.522Z,99193.04
2018-03-07T21:07:07.182Z,99205.42
2018-03-07T21:09:34.834Z,99206.63
2018-03-07T21:12:02.476Z,99223.45
2018-03-07T21:14:30.264Z,99245.14
2018-03-07T21:16:57.914Z,99233.19
2018-03-07T21:19:25.523Z,99227.80
2018-03-07T21:21:53.194Z,99249.21
2018-03-07T21:24:20.903Z,99253.09
2018-03-07T21:26:48.526Z,99245.53
2018-03-07T21:29:16.142Z,99254.31
2018-03-07T21:31:43.755Z,99251.80
2018-03-07T21:34:12.068Z,99265.34
2018-03-07T21:36:39.732Z,99277.70
2018-03-07T21:39:07.390Z,99270.25
2018-03-07T21:41:35.156Z,99268.67
2018-03-07T21:44:02.759Z,99267.98
2018-03-07T21:46:30.380Z,99271.83
2018-03-07T21:48:57.969Z,99271.97
2018-03-07T21:51:25.594Z,99275.29
2018-03-07T21:53:53.198Z,99278.86
2018-03-07T21:56:20.816Z,99274.64
2018-03-07T21:58:48.418Z,99277.67
2018-03-07T22:01:16.044Z,99278.23
2018-03-07T22:03:43.685Z,99281.28
2018-03-07T22:06:11.293Z,99283.80
2018-03-07T22:08:39.106Z,99284.86
2018-03-07T22:11:06.745Z,99290.03
2018-03-07T22:13:34.376Z,99300.66
2018-03-07T22:16:02.013Z,99296.81
2018-03-07T22:18:30.282Z,99293.25
2018-03-07T22:20:57.905Z,99288.72
2018-03-07T22:23:25.650Z,99299.07
2018-03-07T22:25:53.310Z,99304.67
2018-03-07T22:28:20.954Z,99307.06
2018-03-07T22:30:48.587Z,99310.91
2018-03-07T22:33:16.171Z,99309.72
2018-03-07T22:35:43.794Z,99322.87
2018-03-07T22:38:11.391Z,99319.27
2018-03-07T22:40:39.030Z,99331.63
2018-03-07T22:43:06.663Z,99329.76
2018-03-07T22:45:34.282Z,99337.35
2018-03-07T22:48:01.889Z,99335.88
2018-03-07T22:50:29.499Z,99341.61
2018-03-07T22:52:57.094Z,99339.06
2018-03-07T22:55:24.755Z,99355.42
2018-03-07T22:57:52.357Z,99351.57
2018-03-07T23:00:25.423Z,99350.89
2018-03-07T23:02:53.020Z,99356.20
2018-03-07T23:05:20.675Z,99367.23
2018-03-07T23:07:48.330Z,99349.72
2018-03-07T23:10:16.796Z,99361.79
2018-03-07T23:12:44.490Z,99364.72
2018-03-07T23:15:12.130Z,99364.85
2018-03-07T23:17:39.786Z,99369.12
2018-03-07T23:20:07.377Z,99376.14
2018-03-07T23:22:35.018Z,99370.30
2018-03-07T23:25:02.627Z,99366.99
2018-03-07T23:27:30.282Z,99369.65
2018-03-07T23:29:57.958Z,99371.77
2018-03-07T23:32:25.562Z,99376.55
2018-03-07T23:34:53.250Z,99383.34
2018-03-07T23:37:20.871Z,99387.05
2018-03-07T23:39:48.550Z,99391.31
2018-03-07T23:42:16.206Z,99400.63
2018-03-07T23:44:43.809Z,99400.48
2018-03-07T23:47:11.438Z,99406.19
2018-03-07T23:49:39.038Z,99402.34
2018-03-07T23:52:06.723Z,99406.87
2018-03-07T23:54:34.314Z,99413.77
2018-03-07T23:57:01.956Z,99413.63
2018-03-07T23:59:29.592Z,99420.28
